createdAt,value
2019-04-27T00:00:35.341Z,12.00
2019-04-27T00:03:13.297Z,12.20
2019-04-27T00:05:43.837Z,12.10
2019-04-27T00:08:14.209Z,11.33
2019-04-27T00:10:44.583Z,10.32
2019-04-27T00:13:15.196Z,11.70
2019-04-27T00:15:48.381Z,12.20
2019-04-27T00:18:18.756Z,11.83
2019-04-27T00:21:01.014Z,12.68
2019-04-27T00:23:31.617Z,11.80
2019-04-27T00:26:00.428Z,12.10
2019-04-27T00:28:29.229Z,11.38
2019-04-27T00:30:57.956Z,13.15
2019-04-27T00:33:26.759Z,12.58
2019-04-27T00:35:57.149Z,12.53
2019-04-27T00:38:27.517Z,12.90
2019-04-27T00:40:57.904Z,13.18
2019-04-27T00:43:26.716Z,13.03
2019-04-27T00:45:55.544Z,12.05
2019-04-27T00:48:24.296Z,13.00
2019-04-27T00:50:53.039Z,13.03
2019-04-27T00:53:23.436Z,12.82
2019-04-27T00:56:00.114Z,12.95
2019-04-27T00:58:36.632Z,12.98
2019-04-27T01:01:14.964Z,12.93
2019-04-27T01:03:45.188Z,13.58
2019-04-27T01:06:14.934Z,13.40
2019-04-27T01:08:44.977Z,13.00
2019-04-27T01:11:14.105Z,13.48
2019-04-27T01:13:43.443Z,13.68
2019-04-27T01:16:15.262Z,13.75
2019-04-27T01:18:43.039Z,12.93
2019-04-27T01:21:11.786Z,13.03
2019-04-27T01:23:40.517Z,12.65
2019-04-27T01:26:25.637Z,13.88
2019-04-27T01:28:56.004Z,12.80
2019-04-27T01:31:24.819Z,13.88
2019-04-27T01:33:53.539Z,13.35
2019-04-27T01:36:22.273Z,14.73
2019-04-27T01:38:51.013Z,14.80
2019-04-27T01:41:19.743Z,14.60
2019-04-27T01:43:49.032Z,15.08
2019-04-27T01:46:19.324Z,14.78
2019-04-27T01:48:49.007Z,13.78
2019-04-27T01:51:20.746Z,13.95
2019-04-27T01:53:49.212Z,14.07
2019-04-27T01:56:19.484Z,14.63
2019-04-27T01:58:49.385Z,14.38
2019-04-27T02:01:20.662Z,14.13
2019-04-27T02:04:09.076Z,14.93
2019-04-27T02:06:38.580Z,15.28
2019-04-27T02:09:09.853Z,13.25
2019-04-27T02:11:38.920Z,14.38
2019-04-27T02:14:09.402Z,14.50
2019-04-27T02:16:39.159Z,14.87
2019-04-27T02:19:09.018Z,14.65
2019-04-27T02:21:39.191Z,15.45
2019-04-27T02:24:10.990Z,14.50
2019-04-27T02:26:39.863Z,15.05
2019-04-27T02:29:18.873Z,14.18
2019-04-27T02:32:02.920Z,15.83
2019-04-27T02:34:33.244Z,14.35
2019-04-27T02:37:02.578Z,16.02
2019-04-27T02:39:31.721Z,14.93
2019-04-27T02:42:00.537Z,15.45
2019-04-27T02:44:30.903Z,16.62
2019-04-27T02:47:00.324Z,15.32
2019-04-27T02:49:30.472Z,15.20
2019-04-27T02:52:19.692Z,15.30
2019-04-27T02:54:50.281Z,15.58
2019-04-27T02:57:19.839Z,16.50
2019-04-27T02:59:50.244Z,15.78
2019-04-27T03:02:20.645Z,15.75
2019-04-27T03:04:50.028Z,14.98
2019-04-27T03:09:50.620Z,16.25
2019-04-27T03:12:20.471Z,15.58
2019-04-27T03:14:50.878Z,15.63
2019-04-27T03:17:39.531Z,15.95
2019-04-27T03:20:16.221Z,14.73
2019-04-27T03:22:46.596Z,15.80
2019-04-27T03:25:19.832Z,15.75
2019-04-27T03:27:50.289Z,15.93
2019-04-27T03:30:22.623Z,16.15
2019-04-27T03:32:54.995Z,15.32
2019-04-27T03:35:22.847Z,16.45
2019-04-27T03:37:50.551Z,16.02
2019-04-27T03:40:20.320Z,16.05
2019-04-27T03:42:51.042Z,15.83
2019-04-27T03:45:20.189Z,15.80
2019-04-27T03:47:50.461Z,15.93
2019-04-27T03:50:21.100Z,15.63
2019-04-27T03:52:53.905Z,15.70
2019-04-27T03:55:30.541Z,15.78
2019-04-27T03:58:21.739Z,15.83
2019-04-27T04:00:52.239Z,16.70
2019-04-27T04:03:20.791Z,15.95
2019-04-27T04:05:52.014Z,16.07
2019-04-27T04:08:19.927Z,15.60
2019-04-27T04:10:50.325Z,15.80
2019-04-27T04:13:35.835Z,15.83
2019-04-27T04:16:10.881Z,16.50
2019-04-27T04:18:57.175Z,15.50
2019-04-27T04:21:31.786Z,22.52
2019-04-27T04:24:01.316Z,15.85
2019-04-27T04:26:33.022Z,16.85
2019-04-27T04:29:00.659Z,15.72
2019-04-27T04:31:32.995Z,16.67
2019-04-27T04:34:00.034Z,15.65
2019-04-27T04:36:30.042Z,15.18
2019-04-27T04:39:00.482Z,16.12
2019-04-27T04:41:34.176Z,15.63
2019-04-27T04:44:04.547Z,15.30
2019-04-27T04:46:49.916Z,16.70
2019-04-27T04:49:19.408Z,19.20
2019-04-27T04:51:50.387Z,16.23
2019-04-27T04:54:20.228Z,16.82
2019-04-27T04:56:49.487Z,16.25
2019-04-27T04:59:20.112Z,17.73
2019-04-27T05:01:49.888Z,16.65
2019-04-27T05:04:19.452Z,16.25
2019-04-27T05:06:49.217Z,16.15
2019-04-27T05:09:19.388Z,17.37
2019-04-27T05:14:17.542Z,17.98
2019-04-27T05:16:46.263Z,17.48
2019-04-27T05:19:15.069Z,17.23
2019-04-27T05:21:43.809Z,16.52
2019-04-27T05:24:12.530Z,17.30
2019-04-27T05:26:41.260Z,17.62
2019-04-27T05:29:10.009Z,15.93
2019-04-27T05:31:38.969Z,17.32
2019-04-27T05:34:09.356Z,17.45
2019-04-27T05:36:41.811Z,17.60
2019-04-27T05:39:09.828Z,21.37
2019-04-27T05:41:41.505Z,17.42
2019-04-27T05:44:13.026Z,17.45
2019-04-27T05:46:45.902Z,16.97
2019-04-27T05:49:16.288Z,15.75
2019-04-27T05:51:47.900Z,17.15
2019-04-27T05:54:15.481Z,16.37
2019-04-27T05:56:44.283Z,17.50
2019-04-27T05:59:14.693Z,16.27
2019-04-27T06:01:43.409Z,16.00
2019-04-27T06:04:12.101Z,15.38
2019-04-27T06:06:40.799Z,15.95
2019-04-27T06:09:09.698Z,16.50
2019-04-27T06:11:40.009Z,16.52
2019-04-27T06:14:09.677Z,15.63
2019-04-27T06:16:39.336Z,15.58
2019-04-27T06:19:09.624Z,15.65
2019-04-27T06:21:40.064Z,14.70
2019-04-27T06:24:09.068Z,14.20
2019-04-27T06:26:39.777Z,15.35
2019-04-27T06:29:09.463Z,15.75
2019-04-27T06:31:39.685Z,16.35
2019-04-27T06:34:09.846Z,16.27
2019-04-27T06:36:38.865Z,15.13
2019-04-27T06:39:09.776Z,16.15
2019-04-27T06:41:39.961Z,15.55
2019-04-27T06:44:11.166Z,15.93
2019-04-27T06:46:40.520Z,14.87
2019-04-27T06:49:10.965Z,14.70
2019-04-27T06:51:40.155Z,13.98
2019-04-27T06:54:09.285Z,14.33
2019-04-27T06:56:38.951Z,13.93
2019-04-27T06:59:08.773Z,13.70
2019-04-27T07:01:38.957Z,15.18
2019-04-27T07:04:10.512Z,12.65
2019-04-27T07:06:52.278Z,13.08
2019-04-27T07:09:09.650Z,12.20
2019-04-27T07:11:39.396Z,11.38
2019-04-27T07:14:09.566Z,12.58
2019-04-27T07:16:39.390Z,12.28
2019-04-27T07:19:09.448Z,12.68
2019-04-27T07:21:39.929Z,12.37
2019-04-27T07:24:09.098Z,12.05
2019-04-27T07:26:39.139Z,12.28
2019-04-27T07:29:09.634Z,12.53
2019-04-27T07:31:40.003Z,11.57
2019-04-27T07:34:09.432Z,11.55
2019-04-27T07:36:39.367Z,12.18
2019-04-27T07:39:11.215Z,11.57
2019-04-27T07:41:39.137Z,11.05
2019-04-27T07:44:10.213Z,10.98
2019-04-27T07:46:39.095Z,10.35
2019-04-27T07:49:09.348Z,10.82
2019-04-27T07:51:39.302Z,10.98
2019-04-27T07:54:08.966Z,9.88
2019-04-27T07:56:38.976Z,9.90
2019-04-27T07:59:09.108Z,11.20
2019-04-27T08:01:39.303Z,9.68
2019-04-27T08:04:09.064Z,11.18
2019-04-27T08:06:38.759Z,11.40
2019-04-27T08:09:09.414Z,10.23
2019-04-27T08:11:39.184Z,9.80
2019-04-27T08:14:08.721Z,9.58
2019-04-27T08:16:38.810Z,9.28
2019-04-27T08:19:09.749Z,9.95
2019-04-27T08:21:44.388Z,11.18
2019-04-27T08:24:09.265Z,10.75
2019-04-27T08:26:49.969Z,10.05
2019-04-27T08:29:26.591Z,9.63
2019-04-27T08:31:59.927Z,9.73
2019-04-27T08:34:36.370Z,9.33
2019-04-27T08:37:06.503Z,9.23
2019-04-27T08:39:35.225Z,9.55
2019-04-27T08:42:04.459Z,9.93
2019-04-27T08:47:01.125Z,10.28
2019-04-27T08:49:29.832Z,11.28
2019-04-27T08:52:01.356Z,11.40
2019-04-27T08:54:29.447Z,10.75
2019-04-27T08:56:59.593Z,10.20
2019-04-27T08:59:29.643Z,11.63
2019-04-27T09:01:58.776Z,11.12
2019-04-27T09:04:28.819Z,10.93
2019-04-27T09:07:02.385Z,9.95
2019-04-27T09:09:32.752Z,10.00
2019-04-27T09:12:03.147Z,10.48
2019-04-27T09:14:33.506Z,10.13
2019-04-27T09:17:15.889Z,9.73
2019-04-27T09:19:46.311Z,10.20
2019-04-27T09:22:16.557Z,9.03
2019-04-27T09:24:45.394Z,8.95
2019-04-27T09:27:17.124Z,10.40
2019-04-27T09:29:44.584Z,9.65
2019-04-27T09:32:13.395Z,9.05
2019-04-27T09:34:42.099Z,8.95
2019-04-27T09:37:10.855Z,8.95
2019-04-27T09:39:39.588Z,9.20
2019-04-27T09:42:08.376Z,9.98
2019-04-27T09:44:37.265Z,8.58
2019-04-27T09:47:06.217Z,8.98
2019-04-27T09:49:36.680Z,9.28
2019-04-27T09:52:06.322Z,9.05
2019-04-27T09:54:36.498Z,9.20
2019-04-27T09:57:07.022Z,9.53
2019-04-27T09:59:39.331Z,8.60
2019-04-27T10:02:08.424Z,8.38
2019-04-27T10:04:36.906Z,8.38
2019-04-27T10:07:06.219Z,10.05
2019-04-27T10:09:36.718Z,9.73
2019-04-27T10:12:07.420Z,8.48
2019-04-27T10:14:36.446Z,8.68
2019-04-27T10:17:05.153Z,9.50
2019-04-27T10:19:33.879Z,9.85
2019-04-27T10:22:02.632Z,9.05
2019-04-27T10:24:31.300Z,9.08
2019-04-27T10:27:00.000Z,9.58
2019-04-27T10:31:56.680Z,8.67
2019-04-27T10:36:53.366Z,14.05
2019-04-27T10:41:53.329Z,14.18
2019-04-27T10:46:49.938Z,12.70
2019-04-27T10:51:46.558Z,11.93
2019-04-27T10:56:43.189Z,11.93
2019-04-27T11:01:39.940Z,10.95
2019-04-27T11:04:10.317Z,10.95
2019-04-27T11:06:40.792Z,10.38
2019-04-27T11:09:12.864Z,11.48
2019-04-27T11:11:41.924Z,11.65
2019-04-27T11:14:10.656Z,12.07
2019-04-27T11:16:39.388Z,12.80
2019-04-27T11:19:08.250Z,12.45
2019-04-27T11:21:36.996Z,11.70
2019-04-27T11:24:06.039Z,11.30
2019-04-27T11:26:36.303Z,10.25
2019-04-27T11:29:05.163Z,11.15
2019-04-27T11:31:34.146Z,11.33
2019-04-27T11:34:03.036Z,11.95
2019-04-27T11:36:33.410Z,11.65
2019-04-27T11:39:03.777Z,12.33
2019-04-27T11:41:32.522Z,12.85
2019-04-27T11:44:01.323Z,13.58
2019-04-27T11:46:30.127Z,10.20
2019-04-27T11:48:58.868Z,10.53
2019-04-27T11:51:27.603Z,9.68
2019-04-27T11:53:56.351Z,9.23
2019-04-27T11:56:27.296Z,10.40
2019-04-27T11:58:56.079Z,10.15
2019-04-27T12:01:26.922Z,9.58
2019-04-27T12:03:55.727Z,10.25
2019-04-27T12:06:25.884Z,8.78
2019-04-27T12:08:54.733Z,9.50
2019-04-27T12:11:23.454Z,9.75
2019-04-27T12:13:52.220Z,9.25
2019-04-27T12:16:20.923Z,9.95
2019-04-27T12:18:49.645Z,9.90
2019-04-27T12:21:18.381Z,9.00
2019-04-27T12:23:47.303Z,8.93
2019-04-27T12:26:32.521Z,9.08
2019-04-27T12:29:02.879Z,8.20
2019-04-27T12:31:33.257Z,8.18
2019-04-27T12:34:01.991Z,8.43
2019-04-27T12:36:30.803Z,8.85
2019-04-27T12:38:59.525Z,9.05
2019-04-27T12:41:29.781Z,13.95
2019-04-27T12:43:58.490Z,9.85
2019-04-27T12:46:27.259Z,9.28
2019-04-27T12:48:57.252Z,8.78
2019-04-27T12:51:26.118Z,8.68
2019-04-27T12:53:56.524Z,8.90
2019-04-27T12:56:43.257Z,9.18
2019-04-27T12:59:16.071Z,8.78
2019-04-27T13:01:46.241Z,8.78
2019-04-27T13:04:15.096Z,8.75
2019-04-27T13:06:43.887Z,9.00
2019-04-27T13:09:12.733Z,9.30
2019-04-27T13:11:41.454Z,8.28
2019-04-27T13:14:10.202Z,8.68
2019-04-27T13:16:38.928Z,8.98
2019-04-27T13:19:07.730Z,8.85
2019-04-27T13:21:36.627Z,9.00
2019-04-27T13:24:06.965Z,13.38
2019-04-27T13:26:36.189Z,12.50
2019-04-27T13:29:06.776Z,12.13
2019-04-27T13:31:36.892Z,9.65
2019-04-27T13:34:05.843Z,9.00
2019-04-27T13:36:34.585Z,8.53
2019-04-27T13:39:06.321Z,8.90
2019-04-27T13:41:36.028Z,9.80
2019-04-27T13:44:06.467Z,7.85
2019-04-27T13:46:53.238Z,7.70
2019-04-27T13:49:26.427Z,8.63
2019-04-27T13:51:57.512Z,8.78
2019-04-27T13:54:29.137Z,8.85
2019-04-27T13:56:56.808Z,9.08
2019-04-27T13:59:25.551Z,10.30
2019-04-27T14:01:54.298Z,7.53
2019-04-27T14:04:24.128Z,8.88
2019-04-27T14:06:53.048Z,7.80
2019-04-27T14:09:21.813Z,8.90
2019-04-27T14:11:52.150Z,7.95
2019-04-27T14:14:20.879Z,8.63
2019-04-27T14:19:18.927Z,8.08
2019-04-27T14:21:49.053Z,8.50
2019-04-27T14:24:27.539Z,8.45
2019-04-27T14:26:48.642Z,8.28
2019-04-27T14:29:18.921Z,8.58
2019-04-27T14:31:47.895Z,8.33
2019-04-27T14:34:19.035Z,9.18
2019-04-27T14:36:48.827Z,8.80
2019-04-27T14:39:18.523Z,9.95
2019-04-27T14:41:49.014Z,8.30
2019-04-27T14:44:18.711Z,9.60
2019-04-27T14:46:48.538Z,9.98
2019-04-27T14:49:19.588Z,9.85
2019-04-27T14:51:48.657Z,8.85
2019-04-27T14:54:17.524Z,10.30
2019-04-27T14:56:48.782Z,9.00
2019-04-27T14:59:18.802Z,9.50
2019-04-27T15:01:48.778Z,9.68
2019-04-27T15:04:17.607Z,10.30
2019-04-27T15:06:46.347Z,9.20
2019-04-27T15:09:17.927Z,8.65
2019-04-27T15:11:49.338Z,9.55
2019-04-27T15:14:16.338Z,9.35
2019-04-27T15:16:47.156Z,9.13
2019-04-27T15:19:20.116Z,9.48
2019-04-27T15:21:57.793Z,8.95
2019-04-27T15:24:20.690Z,8.03
2019-04-27T15:26:50.154Z,7.97
2019-04-27T15:29:25.038Z,8.15
2019-04-27T15:31:55.927Z,8.50
2019-04-27T15:34:29.130Z,7.97
2019-04-27T15:36:59.594Z,7.70
2019-04-27T15:39:41.688Z,7.72
2019-04-27T15:42:15.059Z,7.00
2019-04-27T15:44:44.229Z,7.45
2019-04-27T15:47:13.195Z,7.35
2019-04-27T15:49:49.955Z,8.40
2019-04-27T15:52:12.324Z,7.78
2019-04-27T15:54:41.024Z,8.83
2019-04-27T15:57:12.931Z,8.13
2019-04-27T15:59:41.108Z,12.05
2019-04-27T16:02:15.329Z,22.60
2019-04-27T16:04:44.292Z,18.75
2019-04-27T16:07:11.106Z,7.70
2019-04-27T16:12:12.567Z,7.60
2019-04-27T16:14:40.977Z,7.05
2019-04-27T16:17:11.396Z,7.30
2019-04-27T16:19:40.677Z,7.08
2019-04-27T16:22:09.520Z,6.92
2019-04-27T16:24:39.140Z,7.08
2019-04-27T16:27:08.071Z,7.28
2019-04-27T16:29:36.805Z,6.75
2019-04-27T16:32:07.818Z,7.30
2019-04-27T16:34:37.891Z,8.83
2019-04-27T16:37:09.531Z,6.62
2019-04-27T16:39:39.659Z,7.30
2019-04-27T16:42:09.963Z,7.58
2019-04-27T16:44:40.017Z,7.00
2019-04-27T16:47:08.445Z,8.78
2019-04-27T16:49:39.147Z,15.70
2019-04-27T16:52:09.800Z,9.08
2019-04-27T16:54:39.551Z,7.30
2019-04-27T16:57:10.368Z,7.15
2019-04-27T17:02:09.452Z,7.28
2019-04-27T17:04:38.746Z,6.53
2019-04-27T17:07:08.683Z,6.92
2019-04-27T17:09:42.147Z,7.65
2019-04-27T17:12:08.957Z,6.62
2019-04-27T17:12:41.009Z,6.97
2019-04-27T17:14:39.461Z,7.22
2019-04-27T17:17:25.915Z,7.70
2019-04-27T17:19:58.033Z,7.22
2019-04-27T17:22:26.642Z,7.90
2019-04-27T17:24:55.390Z,7.55
2019-04-27T17:27:29.794Z,7.15
2019-04-27T17:30:01.670Z,7.65
2019-04-27T17:32:33.957Z,7.47
2019-04-27T17:35:05.319Z,7.28
2019-04-27T17:37:33.889Z,8.40
2019-04-27T17:40:02.860Z,7.20
2019-04-27T17:42:31.614Z,8.75
2019-04-27T17:45:00.576Z,7.87
2019-04-27T17:49:58.851Z,9.10
2019-04-27T17:52:27.648Z,8.65
2019-04-27T17:54:56.389Z,9.00
2019-04-27T17:57:26.627Z,8.53
2019-04-27T17:59:59.017Z,8.88
2019-04-27T18:02:26.619Z,8.28
2019-04-27T18:04:55.355Z,9.78
2019-04-27T18:07:24.103Z,8.53
2019-04-27T18:09:52.840Z,12.28
2019-04-27T18:12:21.653Z,11.85
2019-04-27T18:14:50.329Z,13.13
2019-04-27T18:17:19.973Z,9.68
2019-04-27T18:19:50.544Z,11.28
2019-04-27T18:22:19.884Z,14.93
2019-04-27T18:24:55.661Z,8.63
2019-04-27T18:27:38.811Z,10.28
2019-04-27T18:30:18.926Z,9.93
2019-04-27T18:32:48.960Z,9.78
2019-04-27T18:35:19.997Z,9.83
2019-04-27T18:37:48.378Z,10.13
2019-04-27T18:40:18.227Z,9.35
2019-04-27T18:42:47.147Z,8.90
2019-04-27T18:45:15.882Z,9.43
2019-04-27T18:47:47.973Z,9.73
2019-04-27T18:50:43.585Z,9.65
2019-04-27T18:53:16.329Z,9.85
2019-04-27T18:55:44.331Z,11.35
2019-04-27T18:58:13.150Z,10.95
2019-04-27T19:00:41.971Z,11.68
2019-04-27T19:03:10.702Z,10.95
2019-04-27T19:05:40.496Z,12.05
2019-04-27T19:08:09.393Z,11.85
2019-04-27T19:10:38.423Z,11.05
2019-04-27T19:13:08.779Z,11.73
2019-04-27T19:15:38.621Z,11.30
2019-04-27T19:18:08.441Z,10.85
2019-04-27T19:20:39.045Z,11.43
2019-04-27T19:23:08.836Z,11.90
2019-04-27T19:25:54.554Z,12.10
2019-04-27T19:28:31.000Z,11.80
2019-04-27T19:31:04.509Z,12.10
2019-04-27T19:33:33.250Z,12.60
2019-04-27T19:36:01.988Z,13.72
2019-04-27T19:38:30.735Z,12.20
2019-04-27T19:40:59.487Z,12.73
2019-04-27T19:43:28.499Z,13.72
2019-04-27T19:45:58.387Z,12.65
2019-04-27T19:48:28.663Z,13.35
2019-04-27T19:50:57.507Z,12.20
2019-04-27T19:53:26.250Z,13.40
2019-04-27T19:56:04.336Z,12.00
2019-04-27T19:58:34.806Z,12.50
2019-04-27T20:01:11.875Z,11.95
2019-04-27T20:03:42.814Z,12.43
2019-04-27T20:06:11.618Z,11.65
2019-04-27T20:08:41.992Z,10.95
2019-04-27T20:11:10.824Z,11.12
2019-04-27T20:13:39.547Z,11.93
2019-04-27T20:16:08.367Z,12.18
2019-04-27T20:18:37.113Z,11.88
2019-04-27T20:21:05.834Z,11.57
2019-04-27T20:23:34.562Z,12.10
2019-04-27T20:26:03.410Z,12.13
2019-04-27T20:28:32.134Z,11.53
2019-04-27T20:31:02.705Z,11.10
2019-04-27T20:33:31.262Z,11.40
2019-04-27T20:36:01.039Z,11.68
2019-04-27T20:38:31.605Z,10.98
2019-04-27T20:41:01.364Z,11.43
2019-04-27T20:43:31.806Z,11.12
2019-04-27T20:46:00.915Z,11.10
2019-04-27T20:48:31.302Z,10.50
2019-04-27T20:51:01.294Z,10.90
2019-04-27T20:53:31.804Z,10.98
2019-04-27T20:56:00.554Z,10.80
2019-04-27T20:58:31.008Z,11.25
2019-04-27T21:01:01.549Z,10.03
2019-04-27T21:03:34.520Z,10.13
2019-04-27T21:06:04.924Z,11.00
2019-04-27T21:08:35.307Z,10.82
2019-04-27T21:11:04.246Z,10.20
2019-04-27T21:13:32.994Z,10.25
2019-04-27T21:16:02.227Z,10.63
2019-04-27T21:21:01.294Z,10.90
2019-04-27T21:25:59.670Z,10.10
2019-04-27T21:28:28.388Z,9.20
2019-04-27T21:30:57.097Z,10.45
2019-04-27T21:33:25.800Z,9.10
2019-04-27T21:35:54.537Z,9.28
2019-04-27T21:38:23.389Z,9.70
2019-04-27T21:40:53.432Z,9.58
2019-04-27T21:43:22.184Z,9.93
2019-04-27T21:45:51.153Z,9.38
2019-04-27T21:48:21.214Z,8.60
2019-04-27T21:50:51.676Z,8.85
2019-04-27T21:53:38.077Z,10.20
2019-04-27T21:56:08.465Z,9.13
2019-04-27T21:58:37.275Z,10.23
2019-04-27T22:01:08.029Z,9.40
2019-04-27T22:03:36.755Z,9.68
2019-04-27T22:06:05.493Z,10.08
2019-04-27T22:08:34.257Z,10.65
2019-04-27T22:11:03.031Z,10.98
2019-04-27T22:13:31.837Z,9.85
2019-04-27T22:16:00.602Z,10.23
2019-04-27T22:18:31.216Z,9.10
2019-04-27T22:21:01.290Z,10.10
2019-04-27T22:23:43.837Z,8.80
2019-04-27T22:26:12.573Z,8.38
2019-04-27T22:28:47.090Z,8.70
2019-04-27T22:31:12.560Z,8.00
2019-04-27T22:33:43.024Z,8.40
2019-04-27T22:36:11.882Z,8.98
2019-04-27T22:38:41.260Z,8.93
2019-04-27T22:41:13.017Z,8.00
2019-04-27T22:43:51.293Z,7.85
2019-04-27T22:46:36.697Z,8.25
2019-04-27T22:49:05.423Z,8.15
2019-04-27T22:51:34.158Z,8.50
2019-04-27T22:54:02.960Z,8.88
2019-04-27T22:56:32.270Z,8.43
2019-04-27T23:01:37.112Z,7.95
2019-04-27T23:04:07.476Z,8.75
2019-04-27T23:06:36.587Z,8.30
2019-04-27T23:09:06.431Z,8.90
2019-04-27T23:11:35.248Z,8.28
2019-04-27T23:14:04.034Z,8.35
2019-04-27T23:16:34.411Z,7.92
2019-04-27T23:19:03.128Z,8.38
2019-04-27T23:21:31.932Z,8.35
2019-04-27T23:24:01.880Z,8.85
2019-04-27T23:26:31.251Z,8.35
2019-04-27T23:31:40.786Z,8.68
2019-04-27T23:34:11.674Z,7.47
2019-04-27T23:36:42.313Z,8.53
2019-04-27T23:39:11.860Z,8.18
2019-04-27T23:41:40.712Z,8.00
2019-04-27T23:44:09.519Z,8.20
2019-04-27T23:46:38.241Z,8.43
2019-04-27T23:49:07.012Z,7.97
2019-04-27T23:51:49.417Z,8.40
2019-04-27T23:54:18.146Z,7.87
2019-04-27T23:56:46.877Z,8.45
2019-04-27T23:59:24.521Z,8.23
